sensor_id;sensor_type;location;lat;lon;timestamp;pressure;altitude;pressure_sealevel;temperature;humidity
68075;BME280;54864;52.002;5.468;2023-01-29T00:00:26;102907.97;;;4.61;70.95
68075;BME280;54864;52.002;5.468;2023-01-29T00:01:27;102892.28;;;4.61;70.76
68075;BME280;54864;52.002;5.468;2023-01-29T00:02:30;102901.00;;;4.61;70.59
68075;BME280;54864;52.002;5.468;2023-01-29T00:03:31;102888.69;;;4.54;71.02
68075;BME280;54864;52.002;5.468;2023-01-29T00:04:33;102893.88;;;4.51;70.87
68075;BME280;54864;52.002;5.468;2023-01-29T00:05:34;102902.59;;;4.52;71.18
68075;BME280;54864;52.002;5.468;2023-01-29T00:06:36;102901.75;;;4.54;70.75
68075;BME280;54864;52.002;5.468;2023-01-29T00:07:37;102900.09;;;4.58;71.16
68075;BME280;54864;52.002;5.468;2023-01-29T00:08:39;102899.13;;;4.54;70.38
68075;BME280;54864;52.002;5.468;2023-01-29T00:09:39;102899.94;;;4.49;70.84
68075;BME280;54864;52.002;5.468;2023-01-29T00:10:41;102891.34;;;4.56;70.77
68075;BME280;54864;52.002;5.468;2023-01-29T00:11:42;102895.72;;;4.57;70.72
68075;BME280;54864;52.002;5.468;2023-01-29T00:12:44;102890.56;;;4.63;70.80
68075;BME280;54864;52.002;5.468;2023-01-29T00:13:45;102890.59;;;4.64;70.05
68075;BME280;54864;52.002;5.468;2023-01-29T00:14:48;102893.19;;;4.63;70.30
68075;BME280;54864;52.002;5.468;2023-01-29T00:15:53;102882.72;;;4.61;70.70
68075;BME280;54864;52.002;5.468;2023-01-29T00:16:55;102889.63;;;4.56;70.51
68075;BME280;54864;52.002;5.468;2023-01-29T00:17:57;102881.00;;;4.63;70.01
68075;BME280;54864;52.002;5.468;2023-01-29T00:18:59;102887.91;;;4.58;70.35
68075;BME280;54864;52.002;5.468;2023-01-29T00:20:01;102872.97;;;4.50;70.86
68075;BME280;54864;52.002;5.468;2023-01-29T00:21:02;102892.97;;;4.49;71.26
68075;BME280;54864;52.002;5.468;2023-01-29T00:22:04;102879.84;;;4.44;70.88
68075;BME280;54864;52.002;5.468;2023-01-29T00:23:05;102883.34;;;4.45;71.01
68075;BME280;54864;52.002;5.468;2023-01-29T00:24:07;102879.91;;;4.47;71.01
68075;BME280;54864;52.002;5.468;2023-01-29T00:25:08;102876.41;;;4.47;70.94
68075;BME280;54864;52.002;5.468;2023-01-29T00:26:11;102876.41;;;4.47;71.38
68075;BME280;54864;52.002;5.468;2023-01-29T00:27:12;102865.94;;;4.45;71.02
68075;BME280;54864;52.002;5.468;2023-01-29T00:28:14;102872.06;;;4.47;71.01
68075;BME280;54864;52.002;5.468;2023-01-29T00:29:15;102866.91;;;4.54;71.63
68075;BME280;54864;52.002;5.468;2023-01-29T00:30:19;102863.44;;;4.55;70.90
68075;BME280;54864;52.002;5.468;2023-01-29T00:31:22;102863.50;;;4.56;71.34
68075;BME280;54864;52.002;5.468;2023-01-29T00:32:24;102869.63;;;4.58;71.27
68075;BME280;54864;52.002;5.468;2023-01-29T00:33:25;102865.28;;;4.60;70.94
68075;BME280;54864;52.002;5.468;2023-01-29T00:34:26;102860.03;;;4.57;71.25
68075;BME280;54864;52.002;5.468;2023-01-29T00:35:27;102858.31;;;4.59;70.39
68075;BME280;54864;52.002;5.468;2023-01-29T00:36:29;102863.53;;;4.59;70.76
68075;BME280;54864;52.002;5.468;2023-01-29T00:37:30;102860.84;;;4.55;71.02
68075;BME280;54864;52.002;5.468;2023-01-29T00:38:33;102860.78;;;4.52;70.98
68075;BME280;54864;52.002;5.468;2023-01-29T00:39:34;102866.16;;;4.59;70.73
68075;BME280;54864;52.002;5.468;2023-01-29T00:40:39;102854.69;;;4.50;70.94
68075;BME280;54864;52.002;5.468;2023-01-29T00:41:59;102860.00;;;4.56;71.04
68075;BME280;54864;52.002;5.468;2023-01-29T00:43:18;102855.59;;;4.55;70.93
68075;BME280;54864;52.002;5.468;2023-01-29T00:44:38;102856.44;;;4.51;71.03
68075;BME280;54864;52.002;5.468;2023-01-29T00:45:59;102860.78;;;4.50;71.37
68075;BME280;54864;52.002;5.468;2023-01-29T00:47:01;102866.03;;;4.52;71.85
68075;BME280;54864;52.002;5.468;2023-01-29T00:48:03;102860.81;;;4.53;71.87
68075;BME280;54864;52.002;5.468;2023-01-29T00:49:06;102863.50;;;4.58;71.56
68075;BME280;54864;52.002;5.468;2023-01-29T00:50:09;102865.28;;;4.59;71.78
68075;BME280;54864;52.002;5.468;2023-01-29T00:51:11;102862.69;;;4.60;71.62
68075;BME280;54864;52.002;5.468;2023-01-29T00:52:13;102868.75;;;4.59;71.29
68075;BME280;54864;52.002;5.468;2023-01-29T00:53:27;102867.06;;;4.63;71.54
68075;BME280;54864;52.002;5.468;2023-01-29T00:54:28;102874.03;;;4.62;71.92
68075;BME280;54864;52.002;5.468;2023-01-29T00:55:29;102867.03;;;4.61;71.62
68075;BME280;54864;52.002;5.468;2023-01-29T00:56:30;102866.22;;;4.65;71.37
68075;BME280;54864;52.002;5.468;2023-01-29T00:57:34;102864.53;;;4.69;71.59
68075;BME280;54864;52.002;5.468;2023-01-29T00:58:35;102866.25;;;4.68;71.29
68075;BME280;54864;52.002;5.468;2023-01-29T00:59:36;102869.72;;;4.66;71.18
68075;BME280;54864;52.002;5.468;2023-01-29T01:00:37;102865.28;;;4.59;71.17
68075;BME280;54864;52.002;5.468;2023-01-29T01:01:40;102866.19;;;4.64;71.34
68075;BME280;54864;52.002;5.468;2023-01-29T01:03:00;102864.47;;;4.66;70.86
68075;BME280;54864;52.002;5.468;2023-01-29T01:04:08;102866.19;;;4.64;70.89
68075;BME280;54864;52.002;5.468;2023-01-29T01:05:12;102871.44;;;4.64;71.15
68075;BME280;54864;52.002;5.468;2023-01-29T01:06:17;102860.97;;;4.62;71.26
68075;BME280;54864;52.002;5.468;2023-01-29T01:07:19;102858.22;;;4.55;71.04
68075;BME280;54864;52.002;5.468;2023-01-29T01:08:19;102858.16;;;4.49;71.41
68075;BME280;54864;52.002;5.468;2023-01-29T01:09:39;102856.44;;;4.51;71.90
68075;BME280;54864;52.002;5.468;2023-01-29T01:11:00;102848.75;;;4.60;71.42
68075;BME280;54864;52.002;5.468;2023-01-29T01:12:02;102851.34;;;4.60;71.59
68075;BME280;54864;52.002;5.468;2023-01-29T01:13:05;102843.56;;;4.63;71.30
68075;BME280;54864;52.002;5.468;2023-01-29T01:14:07;102849.66;;;4.65;70.96
68075;BME280;54864;52.002;5.468;2023-01-29T01:15:09;102843.59;;;4.66;71.38
68075;BME280;54864;52.002;5.468;2023-01-29T01:16:13;102845.31;;;4.64;70.92
68075;BME280;54864;52.002;5.468;2023-01-29T01:17:15;102849.63;;;4.60;71.27
68075;BME280;54864;52.002;5.468;2023-01-29T01:18:17;102845.31;;;4.64;70.60
68075;BME280;54864;52.002;5.468;2023-01-29T01:19:21;102853.13;;;4.62;71.36
68075;BME280;54864;52.002;5.468;2023-01-29T01:20:24;102846.13;;;4.60;71.17
68075;BME280;54864;52.002;5.468;2023-01-29T01:21:25;102847.00;;;4.60;71.24
68075;BME280;54864;52.002;5.468;2023-01-29T01:22:27;102849.63;;;4.60;71.89
68075;BME280;54864;52.002;5.468;2023-01-29T01:23:28;102845.28;;;4.62;71.29
68075;BME280;54864;52.002;5.468;2023-01-29T01:24:29;102845.16;;;4.55;71.63
68075;BME280;54864;52.002;5.468;2023-01-29T01:25:30;102843.41;;;4.54;71.17
68075;BME280;54864;52.002;5.468;2023-01-29T01:26:32;102835.66;;;4.58;71.33
68075;BME280;54864;52.002;5.468;2023-01-29T01:27:33;102845.28;;;4.62;71.41
68075;BME280;54864;52.002;5.468;2023-01-29T01:28:37;102840.03;;;4.59;70.65
68075;BME280;54864;52.002;5.468;2023-01-29T01:29:39;102834.72;;;4.55;71.73
68075;BME280;54864;52.002;5.468;2023-01-29T01:30:40;102842.66;;;4.61;71.37
68075;BME280;54864;52.002;5.468;2023-01-29T01:31:42;102841.75;;;4.57;71.58
68075;BME280;54864;52.002;5.468;2023-01-29T01:32:44;102844.34;;;4.56;71.40
68075;BME280;54864;52.002;5.468;2023-01-29T01:33:45;102831.22;;;4.54;71.43
68075;BME280;54864;52.002;5.468;2023-01-29T01:34:46;102839.13;;;4.56;71.24
68075;BME280;54864;52.002;5.468;2023-01-29T01:35:50;102842.69;;;4.64;71.27
68075;BME280;54864;52.002;5.468;2023-01-29T01:36:51;102844.44;;;4.65;71.69
68075;BME280;54864;52.002;5.468;2023-01-29T01:37:53;102845.28;;;4.62;71.29
68075;BME280;54864;52.002;5.468;2023-01-29T01:38:54;102844.44;;;4.63;71.58
68075;BME280;54864;52.002;5.468;2023-01-29T01:39:56;102838.41;;;4.70;71.48
68075;BME280;54864;52.002;5.468;2023-01-29T01:40:58;102842.78;;;4.73;71.00
68075;BME280;54864;52.002;5.468;2023-01-29T01:42:00;102845.38;;;4.71;71.37
68075;BME280;54864;52.002;5.468;2023-01-29T01:43:01;102845.34;;;4.67;71.70
68075;BME280;54864;52.002;5.468;2023-01-29T01:44:03;102833.09;;;4.61;71.23
68075;BME280;54864;52.002;5.468;2023-01-29T01:45:13;102850.63;;;4.71;70.76
68075;BME280;54864;52.002;5.468;2023-01-29T01:46:18;102858.44;;;4.70;71.15
68075;BME280;54864;52.002;5.468;2023-01-29T01:47:22;102853.25;;;4.73;71.11
68075;BME280;54864;52.002;5.468;2023-01-29T01:48:27;102854.09;;;4.70;71.22
68075;BME280;54864;52.002;5.468;2023-01-29T01:49:27;102855.84;;;4.71;71.02
68075;BME280;54864;52.002;5.468;2023-01-29T01:50:32;102850.63;;;4.73;70.94
68075;BME280;54864;52.002;5.468;2023-01-29T01:51:37;102855.00;;;4.75;70.86
68075;BME280;54864;52.002;5.468;2023-01-29T01:52:44;102852.44;;;4.78;71.21
68075;BME280;54864;52.002;5.468;2023-01-29T01:53:50;102855.09;;;4.82;70.31
68075;BME280;54864;52.002;5.468;2023-01-29T01:54:53;102855.94;;;4.79;70.79
68075;BME280;54864;52.002;5.468;2023-01-29T01:55:57;102855.88;;;4.74;70.41
68075;BME280;54864;52.002;5.468;2023-01-29T01:57:04;102861.13;;;4.76;70.43
68075;BME280;54864;52.002;5.468;2023-01-29T01:58:12;102854.09;;;4.72;70.60
68075;BME280;54864;52.002;5.468;2023-01-29T01:59:17;102854.97;;;4.72;70.93
68075;BME280;54864;52.002;5.468;2023-01-29T02:00:20;102855.00;;;4.74;70.63
68075;BME280;54864;52.002;5.468;2023-01-29T02:01:23;102858.53;;;4.77;70.44
68075;BME280;54864;52.002;5.468;2023-01-29T02:02:28;102847.16;;;4.74;70.60
68075;BME280;54864;52.002;5.468;2023-01-29T02:03:53;102859.22;;;4.63;70.37
68075;BME280;54864;52.002;5.468;2023-01-29T02:05:14;102864.47;;;4.64;71.19
68075;BME280;54864;52.002;5.468;2023-01-29T02:06:34;102857.41;;;4.56;71.05
68075;BME280;54864;52.002;5.468;2023-01-29T02:07:54;102855.78;;;4.67;71.27
68075;BME280;54864;52.002;5.468;2023-01-29T02:09:17;102845.31;;;4.65;70.94
68075;BME280;54864;52.002;5.468;2023-01-29T02:10:38;102860.22;;;4.74;70.79
68075;BME280;54864;52.002;5.468;2023-01-29T02:11:40;102855.00;;;4.75;70.81
68075;BME280;54864;52.002;5.468;2023-01-29T02:12:43;102856.66;;;4.66;70.59
68075;BME280;54864;52.002;5.468;2023-01-29T02:13:45;102847.06;;;4.66;70.68
68075;BME280;54864;52.002;5.468;2023-01-29T02:14:53;102849.78;;;4.75;71.09
68075;BME280;54864;52.002;5.468;2023-01-29T02:15:53;102849.81;;;4.77;70.72
68075;BME280;54864;52.002;5.468;2023-01-29T02:16:55;102852.44;;;4.78;70.70
68075;BME280;54864;52.002;5.468;2023-01-29T02:17:56;102848.94;;;4.78;71.02
68075;BME280;54864;52.002;5.468;2023-01-29T02:19:00;102851.53;;;4.76;70.66
68075;BME280;54864;52.002;5.468;2023-01-29T02:20:08;102852.44;;;4.78;70.65
68075;BME280;54864;52.002;5.468;2023-01-29T02:21:27;102854.94;;;4.68;70.24
68075;BME280;54864;52.002;5.468;2023-01-29T02:22:49;102838.44;;;4.73;70.54
68075;BME280;54864;52.002;5.468;2023-01-29T02:25:46;102841.16;;;4.83;70.58
68075;BME280;54864;52.002;5.468;2023-01-29T02:27:00;102847.22;;;4.80;70.38
68075;BME280;54864;52.002;5.468;2023-01-29T02:28:15;102834.97;;;4.73;70.66
68075;BME280;54864;52.002;5.468;2023-01-29T02:29:27;102848.91;;;4.73;70.63
68075;BME280;54864;52.002;5.468;2023-01-29T02:30:36;102841.91;;;4.72;70.98
68075;BME280;54864;52.002;5.468;2023-01-29T02:31:40;102841.06;;;4.73;70.68
68075;BME280;54864;52.002;5.468;2023-01-29T02:32:49;102853.25;;;4.73;71.06
68075;BME280;54864;52.002;5.468;2023-01-29T02:34:05;102836.63;;;4.68;71.01
68075;BME280;54864;52.002;5.468;2023-01-29T02:35:15;102845.28;;;4.62;70.72
68075;BME280;54864;52.002;5.468;2023-01-29T02:36:34;102846.22;;;4.67;70.95
68075;BME280;54864;52.002;5.468;2023-01-29T02:37:48;102847.06;;;4.66;70.76
68075;BME280;54864;52.002;5.468;2023-01-29T02:39:00;102837.50;;;4.67;70.45
68075;BME280;54864;52.002;5.468;2023-01-29T02:40:11;102836.63;;;4.68;70.51
68075;BME280;54864;52.002;5.468;2023-01-29T02:41:15;102835.75;;;4.66;70.08
68075;BME280;54864;52.002;5.468;2023-01-29T02:42:25;102834.75;;;4.56;70.84
68075;BME280;54864;52.002;5.468;2023-01-29T02:43:32;102842.47;;;4.49;70.42
68075;BME280;54864;52.002;5.468;2023-01-29T02:44:44;102840.75;;;4.49;70.98
68075;BME280;54864;52.002;5.468;2023-01-29T02:45:51;102849.47;;;4.51;71.11
68075;BME280;54864;52.002;5.468;2023-01-29T02:47:02;102852.09;;;4.53;70.94
68075;BME280;54864;52.002;5.468;2023-01-29T02:48:05;102855.66;;;4.56;70.93
68075;BME280;54864;52.002;5.468;2023-01-29T02:49:10;102851.28;;;4.55;71.09
68075;BME280;54864;52.002;5.468;2023-01-29T02:50:20;102851.25;;;4.54;70.46
68075;BME280;54864;52.002;5.468;2023-01-29T02:51:30;102863.56;;;4.62;70.41
68075;BME280;54864;52.002;5.468;2023-01-29T02:52:39;102853.00;;;4.55;70.61
68075;BME280;54864;52.002;5.468;2023-01-29T02:53:50;102849.63;;;4.62;70.39
68075;BME280;54864;52.002;5.468;2023-01-29T02:54:57;102850.53;;;4.64;70.25
68075;BME280;54864;52.002;5.468;2023-01-29T02:56:06;102858.28;;;4.56;70.92
68075;BME280;54864;52.002;5.468;2023-01-29T02:57:15;102852.00;;;4.43;70.52
68075;BME280;54864;52.002;5.468;2023-01-29T02:58:23;102848.38;;;4.32;71.18
68075;BME280;54864;52.002;5.468;2023-01-29T02:59:32;102860.69;;;4.44;70.87
68075;BME280;54864;52.002;5.468;2023-01-29T03:00:37;102858.09;;;4.44;70.05
68075;BME280;54864;52.002;5.468;2023-01-29T03:01:44;102856.53;;;4.55;70.74
68075;BME280;54864;52.002;5.468;2023-01-29T03:02:53;102854.84;;;4.62;70.33
68075;BME280;54864;52.002;5.468;2023-01-29T03:03:59;102853.97;;;4.60;70.34
68075;BME280;54864;52.002;5.468;2023-01-29T03:05:08;102855.75;;;4.64;70.05
68075;BME280;54864;52.002;5.468;2023-01-29T03:06:16;102855.75;;;4.64;69.72
68075;BME280;54864;52.002;5.468;2023-01-29T03:07:24;102847.09;;;4.68;69.92
68075;BME280;54864;52.002;5.468;2023-01-29T03:08:44;102856.78;;;4.76;69.67
68075;BME280;54864;52.002;5.468;2023-01-29T03:09:52;102852.38;;;4.74;69.51
68075;BME280;54864;52.002;5.468;2023-01-29T03:10:56;102846.31;;;4.76;69.10
68075;BME280;54864;52.002;5.468;2023-01-29T03:12:06;102845.47;;;4.79;69.35
68075;BME280;54864;52.002;5.468;2023-01-29T03:13:20;102842.88;;;4.79;69.02
68075;BME280;54864;52.002;5.468;2023-01-29T03:14:31;102846.38;;;4.83;69.51
68075;BME280;54864;52.002;5.468;2023-01-29T03:16:03;102846.38;;;4.83;69.35
68075;BME280;54864;52.002;5.468;2023-01-29T03:17:06;102849.84;;;4.82;69.38
68075;BME280;54864;52.002;5.468;2023-01-29T03:18:12;102854.25;;;4.84;69.15
68075;BME280;54864;52.002;5.468;2023-01-29T03:19:19;102842.91;;;4.84;69.21
68075;BME280;54864;52.002;5.468;2023-01-29T03:20:24;102847.25;;;4.83;69.21
68075;BME280;54864;52.002;5.468;2023-01-29T03:21:31;102848.13;;;4.84;69.15
68075;BME280;54864;52.002;5.468;2023-01-29T03:23:01;102841.84;;;4.66;68.92
68075;BME280;54864;52.002;5.468;2023-01-29T03:24:04;102834.00;;;4.65;69.28
68075;BME280;54864;52.002;5.468;2023-01-29T03:25:26;102832.22;;;4.61;69.58
68075;BME280;54864;52.002;5.468;2023-01-29T03:26:46;102835.75;;;4.66;69.70
68075;BME280;54864;52.002;5.468;2023-01-29T03:28:05;102834.91;;;4.68;68.83
68075;BME280;54864;52.002;5.468;2023-01-29T03:29:27;102829.69;;;4.68;69.92
68075;BME280;54864;52.002;5.468;2023-01-29T03:30:52;102831.50;;;4.77;69.55
68075;BME280;54864;52.002;5.468;2023-01-29T03:32:13;102832.34;;;4.73;69.54
68075;BME280;54864;52.002;5.468;2023-01-29T03:33:18;102828.88;;;4.75;69.25
68075;BME280;54864;52.002;5.468;2023-01-29T03:34:21;102825.38;;;4.72;69.13
68075;BME280;54864;52.002;5.468;2023-01-29T03:35:30;102821.94;;;4.76;69.46
68075;BME280;54864;52.002;5.468;2023-01-29T03:36:36;102812.34;;;4.75;68.94
68075;BME280;54864;52.002;5.468;2023-01-29T03:37:46;102818.41;;;4.74;69.23
68075;BME280;54864;52.002;5.468;2023-01-29T03:38:47;102814.91;;;4.72;69.15
68075;BME280;54864;52.002;5.468;2023-01-29T03:39:49;102815.84;;;4.77;69.29
68075;BME280;54864;52.002;5.468;2023-01-29T03:40:53;102808.84;;;4.76;69.46
68075;BME280;54864;52.002;5.468;2023-01-29T03:42:01;102807.97;;;4.75;68.97
68075;BME280;54864;52.002;5.468;2023-01-29T03:43:08;102804.47;;;4.73;69.02
68075;BME280;54864;52.002;5.468;2023-01-29T03:44:14;102808.84;;;4.76;69.09
68075;BME280;54864;52.002;5.468;2023-01-29T03:45:22;102795.75;;;4.73;68.86
68075;BME280;54864;52.002;5.468;2023-01-29T03:46:32;102800.13;;;4.74;68.69
68075;BME280;54864;52.002;5.468;2023-01-29T03:47:41;102798.41;;;4.76;68.91
68075;BME280;54864;52.002;5.468;2023-01-29T03:48:50;102801.91;;;4.76;68.64
68075;BME280;54864;52.002;5.468;2023-01-29T03:49:58;102801.09;;;4.84;68.81
68075;BME280;54864;52.002;5.468;2023-01-29T03:51:09;102801.09;;;4.82;68.75
68075;BME280;54864;52.002;5.468;2023-01-29T03:52:18;102791.44;;;4.75;68.54
68075;BME280;54864;52.002;5.468;2023-01-29T03:53:24;102797.44;;;4.66;68.87
68075;BME280;54864;52.002;5.468;2023-01-29T03:54:36;102795.72;;;4.68;69.07
68075;BME280;54864;52.002;5.468;2023-01-29T03:55:46;102797.50;;;4.72;68.80
68075;BME280;54864;52.002;5.468;2023-01-29T03:56:58;102795.72;;;4.70;68.76
68075;BME280;54864;52.002;5.468;2023-01-29T03:58:05;102801.81;;;4.67;68.82
68075;BME280;54864;52.002;5.468;2023-01-29T03:59:16;102794.81;;;4.65;69.48
68075;BME280;54864;52.002;5.468;2023-01-29T04:00:22;102795.72;;;4.68;69.54
68075;BME280;54864;52.002;5.468;2023-01-29T04:01:32;102800.94;;;4.67;69.05
68075;BME280;54864;52.002;5.468;2023-01-29T04:02:49;102801.78;;;4.64;69.52
68075;BME280;54864;52.002;5.468;2023-01-29T04:03:56;102797.41;;;4.63;69.33
68075;BME280;54864;52.002;5.468;2023-01-29T04:05:02;102800.06;;;4.66;69.16
68075;BME280;54864;52.002;5.468;2023-01-29T04:06:10;102795.66;;;4.64;69.43
68075;BME280;54864;52.002;5.468;2023-01-29T04:07:16;102804.38;;;4.64;69.55
68075;BME280;54864;52.002;5.468;2023-01-29T04:08:22;102795.63;;;4.61;69.57
68075;BME280;54864;52.002;5.468;2023-01-29T04:09:29;102794.78;;;4.62;69.69
68075;BME280;54864;52.002;5.468;2023-01-29T04:10:31;102788.63;;;4.58;69.40
68075;BME280;54864;52.002;5.468;2023-01-29T04:11:44;102786.81;;;4.54;69.47
68075;BME280;54864;52.002;5.468;2023-01-29T04:12:50;102777.25;;;4.53;69.07
68075;BME280;54864;52.002;5.468;2023-01-29T04:13:54;102779.91;;;4.56;69.16
68075;BME280;54864;52.002;5.468;2023-01-29T04:14:58;102783.19;;;4.41;69.97
68075;BME280;54864;52.002;5.468;2023-01-29T04:16:03;102775.44;;;4.49;69.62
68075;BME280;54864;52.002;5.468;2023-01-29T04:17:13;102779.03;;;4.56;69.31
68075;BME280;54864;52.002;5.468;2023-01-29T04:18:15;102782.56;;;4.61;68.91
68075;BME280;54864;52.002;5.468;2023-01-29T04:19:17;102774.63;;;4.53;68.78
68075;BME280;54864;52.002;5.468;2023-01-29T04:20:19;102773.75;;;4.54;69.12
68075;BME280;54864;52.002;5.468;2023-01-29T04:21:21;102769.41;;;4.55;69.39
68075;BME280;54864;52.002;5.468;2023-01-29T04:22:23;102768.53;;;4.54;69.47
68075;BME280;54864;52.002;5.468;2023-01-29T04:23:26;102775.59;;;4.58;69.77
68075;BME280;54864;52.002;5.468;2023-01-29T04:24:27;102763.44;;;4.62;69.18
68075;BME280;54864;52.002;5.468;2023-01-29T04:25:34;102777.41;;;4.65;69.12
68075;BME280;54864;52.002;5.468;2023-01-29T04:26:52;102769.56;;;4.65;69.00
68075;BME280;54864;52.002;5.468;2023-01-29T04:28:04;102761.75;;;4.68;69.02
68075;BME280;54864;52.002;5.468;2023-01-29T04:29:19;102766.09;;;4.68;68.77
68075;BME280;54864;52.002;5.468;2023-01-29T04:30:26;102759.16;;;4.70;68.59
68075;BME280;54864;52.002;5.468;2023-01-29T04:33:02;102759.94;;;4.60;69.46
68075;BME280;54864;52.002;5.468;2023-01-29T04:34:14;102766.84;;;4.56;69.55
68075;BME280;54864;52.002;5.468;2023-01-29T04:35:28;102767.72;;;4.55;69.14
68075;BME280;54864;52.002;5.468;2023-01-29T04:36:35;102768.47;;;4.46;69.95
68075;BME280;54864;52.002;5.468;2023-01-29T04:37:43;102777.19;;;4.50;69.79
68075;BME280;54864;52.002;5.468;2023-01-29T04:38:56;102766.75;;;4.49;69.67
68075;BME280;54864;52.002;5.468;2023-01-29T04:40:06;102771.13;;;4.53;69.93
68075;BME280;54864;52.002;5.468;2023-01-29T04:41:14;102764.25;;;4.56;69.52
68075;BME280;54864;52.002;5.468;2023-01-29T04:42:26;102762.53;;;4.60;68.91
68075;BME280;54864;52.002;5.468;2023-01-29T04:43:36;102767.78;;;4.61;68.71
68075;BME280;54864;52.002;5.468;2023-01-29T04:44:45;102762.53;;;4.60;68.73
68075;BME280;54864;52.002;5.468;2023-01-29T04:46:02;102763.31;;;4.54;68.63
68075;BME280;54864;52.002;5.468;2023-01-29T04:47:18;102758.16;;;4.56;68.62
68075;BME280;54864;52.002;5.468;2023-01-29T04:48:25;102757.28;;;4.57;69.19
68075;BME280;54864;52.002;5.468;2023-01-29T04:49:34;102754.72;;;4.61;68.67
68075;BME280;54864;52.002;5.468;2023-01-29T04:50:47;102761.69;;;4.62;68.59
68075;BME280;54864;52.002;5.468;2023-01-29T04:51:59;102748.50;;;4.52;68.70
68075;BME280;54864;52.002;5.468;2023-01-29T04:53:06;102756.34;;;4.55;68.84
68075;BME280;54864;52.002;5.468;2023-01-29T04:54:16;102766.75;;;4.50;68.82
68075;BME280;54864;52.002;5.468;2023-01-29T04:55:25;102765.91;;;4.51;68.61
68075;BME280;54864;52.002;5.468;2023-01-29T04:56:34;102763.31;;;4.53;68.94
68075;BME280;54864;52.002;5.468;2023-01-29T04:57:44;102751.94;;;4.47;68.37
68075;BME280;54864;52.002;5.468;2023-01-29T04:58:54;102748.47;;;4.49;69.11
68075;BME280;54864;52.002;5.468;2023-01-29T05:00:00;102755.59;;;4.60;68.88
68075;BME280;54864;52.002;5.468;2023-01-29T05:01:05;102749.44;;;4.55;68.58
68075;BME280;54864;52.002;5.468;2023-01-29T05:02:09;102751.22;;;4.61;68.42
68075;BME280;54864;52.002;5.468;2023-01-29T05:03:13;102753.03;;;4.68;68.48
68075;BME280;54864;52.002;5.468;2023-01-29T05:04:18;102746.94;;;4.66;68.35
68075;BME280;54864;52.002;5.468;2023-01-29T05:05:23;102745.03;;;4.54;68.32
68075;BME280;54864;52.002;5.468;2023-01-29T05:06:25;102745.91;;;4.55;68.54
68075;BME280;54864;52.002;5.468;2023-01-29T05:07:27;102743.41;;;4.61;68.74
68075;BME280;54864;52.002;5.468;2023-01-29T05:08:32;102741.53;;;4.52;68.33
68075;BME280;54864;52.002;5.468;2023-01-29T05:09:34;102738.81;;;4.41;68.48
68075;BME280;54864;52.002;5.468;2023-01-29T05:10:38;102736.25;;;4.46;68.61
68075;BME280;54864;52.002;5.468;2023-01-29T05:11:39;102737.09;;;4.43;68.89
68075;BME280;54864;52.002;5.468;2023-01-29T05:12:44;102737.00;;;4.34;69.26
68075;BME280;54864;52.002;5.468;2023-01-29T05:13:47;102727.53;;;4.45;68.70
68075;BME280;54864;52.002;5.468;2023-01-29T05:14:50;102733.72;;;4.54;68.49
68075;BME280;54864;52.002;5.468;2023-01-29T05:15:56;102724.84;;;4.39;68.69
68075;BME280;54864;52.002;5.468;2023-01-29T05:17:03;102735.44;;;4.52;69.08
68075;BME280;54864;52.002;5.468;2023-01-29T05:18:07;102739.00;;;4.57;68.67
68075;BME280;54864;52.002;5.468;2023-01-29T05:19:11;102732.91;;;4.56;68.23
68075;BME280;54864;52.002;5.468;2023-01-29T05:20:14;102737.13;;;4.46;68.35
68075;BME280;54864;52.002;5.468;2023-01-29T05:21:17;102731.75;;;4.34;68.61
68075;BME280;54864;52.002;5.468;2023-01-29T05:22:19;102733.66;;;4.49;69.04
68075;BME280;54864;52.002;5.468;2023-01-29T05:23:22;102739.00;;;4.57;68.71
68075;BME280;54864;52.002;5.468;2023-01-29T05:24:25;102734.69;;;4.60;68.13
68075;BME280;54864;52.002;5.468;2023-01-29T05:25:28;102735.56;;;4.61;68.24
68075;BME280;54864;52.002;5.468;2023-01-29T05:26:30;102737.31;;;4.63;68.28
68075;BME280;54864;52.002;5.468;2023-01-29T05:27:51;102736.44;;;4.63;68.48
68075;BME280;54864;52.002;5.468;2023-01-29T05:29:05;102738.25;;;4.70;69.18
68075;BME280;54864;52.002;5.468;2023-01-29T05:30:07;102740.91;;;4.73;68.32
68075;BME280;54864;52.002;5.468;2023-01-29T05:31:09;102743.50;;;4.71;68.50
68075;BME280;54864;52.002;5.468;2023-01-29T05:32:10;102746.97;;;4.69;68.60
68075;BME280;54864;52.002;5.468;2023-01-29T05:33:14;102756.53;;;4.70;68.41
68075;BME280;54864;52.002;5.468;2023-01-29T05:34:15;102751.28;;;4.67;68.11
68075;BME280;54864;52.002;5.468;2023-01-29T05:35:18;102746.03;;;4.64;68.35
68075;BME280;54864;52.002;5.468;2023-01-29T05:36:19;102748.69;;;4.67;68.40
68075;BME280;54864;52.002;5.468;2023-01-29T05:37:21;102751.31;;;4.68;69.01
68075;BME280;54864;52.002;5.468;2023-01-29T05:38:22;102749.59;;;4.70;69.04
68075;BME280;54864;52.002;5.468;2023-01-29T05:39:24;102746.97;;;4.69;68.40
68075;BME280;54864;52.002;5.468;2023-01-29T05:40:25;102739.13;;;4.70;68.55
68075;BME280;54864;52.002;5.468;2023-01-29T05:41:27;102740.88;;;4.70;68.74
68075;BME280;54864;52.002;5.468;2023-01-29T05:42:28;102750.50;;;4.75;68.23
68075;BME280;54864;52.002;5.468;2023-01-29T05:43:29;102747.06;;;4.80;68.37
68075;BME280;54864;52.002;5.468;2023-01-29T05:44:31;102747.94;;;4.82;68.54
68075;BME280;54864;52.002;5.468;2023-01-29T05:45:32;102747.94;;;4.82;68.68
68075;BME280;54864;52.002;5.468;2023-01-29T05:46:34;102733.09;;;4.77;68.06
68075;BME280;54864;52.002;5.468;2023-01-29T05:47:35;102747.94;;;4.80;68.15
68075;BME280;54864;52.002;5.468;2023-01-29T05:48:37;102755.72;;;4.74;68.12
68075;BME280;54864;52.002;5.468;2023-01-29T05:49:38;102745.25;;;4.72;68.29
68075;BME280;54864;52.002;5.468;2023-01-29T05:50:41;102744.31;;;4.66;68.60
68075;BME280;54864;52.002;5.468;2023-01-29T05:51:41;102740.03;;;4.74;68.82
68075;BME280;54864;52.002;5.468;2023-01-29T05:52:43;102753.16;;;4.80;68.82
68075;BME280;54864;52.002;5.468;2023-01-29T05:53:44;102746.19;;;4.79;67.98
68075;BME280;54864;52.002;5.468;2023-01-29T05:54:46;102749.69;;;4.83;67.76